Time;durP1;ratioP1;P1;durP2;ratioP2;P2;SDS_P1;SDS_P2;PMS_P1;PMS_P2;Temp;Humidity;BMP_temperature;BMP_pressure;BME280_temperature;BME280_humidity;BME280_pressure;Samples;Min_cycle;Max_cycle;Signal;HPM_P1;HPM_P2
2022/06/04 00:00:42;;;;;;;11.83;10.17;;;23.60;99.90;;;;;;5050405;28;20916;-63
2022/06/04 00:03:11;;;;;;;12.93;9.90;;;23.50;99.90;;;;;;5050073;28;20462;-63
2022/06/04 00:05:41;;;;;;;11.10;10.00;;;23.40;99.90;;;;;;5049991;28;20523;-63
2022/06/04 00:08:10;;;;;;;12.73;10.63;;;23.40;99.90;;;;;;5049875;28;20457;-62
2022/06/04 00:16:09;;;;;;;11.47;9.40;;;23.40;99.90;;;;;;5049919;28;20472;-64
2022/06/04 00:18:38;;;;;;;12.93;10.50;;;23.30;99.90;;;;;;5049904;28;20531;-62
2022/06/04 00:21:06;;;;;;;11.97;9.90;;;23.30;99.90;;;;;;5049891;28;20450;-62
2022/06/04 00:23:33;;;;;;;14.27;9.30;;;23.30;99.90;;;;;;5049677;28;20531;-62
2022/06/04 00:26:02;;;;;;;15.47;10.03;;;23.30;99.90;;;;;;5049812;28;20531;-62
2022/06/04 00:28:29;;;;;;;13.53;10.70;;;23.30;99.90;;;;;;5049519;28;20454;-64
2022/06/04 00:30:58;;;;;;;13.70;9.97;;;23.20;99.90;;;;;;5049553;28;20481;-62
2022/06/04 00:33:25;;;;;;;11.40;9.73;;;23.20;99.90;;;;;;5049429;28;20474;-62
2022/06/04 00:35:57;;;;;;;13.63;9.97;;;23.20;99.90;;;;;;5049746;28;21024;-63
2022/06/04 00:38:26;;;;;;;13.10;10.47;;;23.20;99.90;;;;;;5049601;28;20507;-63
2022/06/04 00:41:01;;;;;;;13.37;11.83;;;22.90;99.90;;;;;;5049692;28;20456;-64
2022/06/04 00:43:28;;;;;;;12.93;11.37;;;22.90;99.90;;;;;;5049145;28;20497;-63
2022/06/04 00:46:34;;;;;;;12.33;10.27;;;22.90;99.90;;;;;;5049542;28;20864;-63
2022/06/04 00:49:01;;;;;;;10.40;9.27;;;23.00;99.90;;;;;;5049302;28;20454;-61
2022/06/04 00:51:29;;;;;;;18.37;10.87;;;23.00;99.90;;;;;;5049377;28;20461;-63
2022/06/04 00:53:58;;;;;;;12.33;10.20;;;22.90;99.90;;;;;;5049472;28;20548;-64
2022/06/04 00:56:36;;;;;;;18.03;13.20;;;22.90;99.90;;;;;;5049581;28;20504;-65
2022/06/04 00:59:15;;;;;;;13.07;11.77;;;22.90;99.90;;;;;;5049479;28;21028;-63
2022/06/04 01:01:58;;;;;;;14.53;12.30;;;22.90;99.90;;;;;;5052171;28;20979;-61
2022/06/04 01:04:48;;;;;;;14.67;13.13;;;22.90;99.90;;;;;;5053424;28;20441;-61
2022/06/04 01:07:24;;;;;;;12.40;11.10;;;22.70;99.90;;;;;;5053421;28;20450;-64
2022/06/04 01:10:08;;;;;;;13.37;11.83;;;22.80;99.90;;;;;;5053062;28;20484;-64
2022/06/04 01:12:52;;;;;;;12.23;10.33;;;22.90;99.90;;;;;;5053257;28;21021;-62
2022/06/04 01:15:30;;;;;;;12.03;10.83;;;23.00;99.90;;;;;;5053389;28;20453;-62
2022/06/04 01:18:08;;;;;;;15.63;13.03;;;23.10;99.90;;;;;;5053190;28;20457;-65
2022/06/04 01:20:41;;;;;;;17.53;11.67;;;23.10;99.90;;;;;;5053294;28;20555;-61
2022/06/04 01:23:49;;;;;;;14.67;12.50;;;23.10;99.90;;;;;;5053116;28;20531;-63
2022/06/04 01:26:41;;;;;;;16.03;12.30;;;23.00;99.90;;;;;;5053354;28;20968;-64
2022/06/04 01:29:14;;;;;;;16.30;12.50;;;22.40;99.90;;;;;;5052919;28;20453;-61
2022/06/04 01:31:46;;;;;;;14.90;13.40;;;22.30;99.90;;;;;;5053192;28;20437;-64
2022/06/04 01:34:17;;;;;;;13.60;12.10;;;22.30;99.90;;;;;;5053026;28;20470;-64
2022/06/04 01:36:48;;;;;;;14.07;12.77;;;22.20;99.90;;;;;;5053137;28;20504;-64
2022/06/04 01:39:20;;;;;;;13.07;11.67;;;22.10;99.90;;;;;;5052877;28;20555;-64
2022/06/04 01:41:51;;;;;;;16.10;13.20;;;22.30;99.90;;;;;;5052950;28;20448;-64
2022/06/04 01:44:21;;;;;;;15.10;13.50;;;22.40;99.90;;;;;;5052355;28;20497;-63
2022/06/04 01:46:51;;;;;;;16.20;12.67;;;22.50;99.90;;;;;;5052962;28;21002;-64
2022/06/04 01:49:23;;;;;;;16.00;13.40;;;22.60;99.90;;;;;;5052462;28;20445;-62
2022/06/04 01:51:53;;;;;;;17.33;13.37;;;22.40;99.90;;;;;;5052803;28;20911;-64
2022/06/04 01:54:26;;;;;;;16.20;12.90;;;22.30;99.90;;;;;;5052506;28;20902;-62
2022/06/04 01:57:00;;;;;;;14.17;12.77;;;22.40;99.90;;;;;;5052517;28;20852;-64
2022/06/04 01:59:33;;;;;;;14.13;12.60;;;22.50;99.90;;;;;;5052514;28;20495;-62
2022/06/04 02:02:04;;;;;;;15.90;12.80;;;22.50;99.90;;;;;;5052088;28;20803;-64
2022/06/04 02:04:36;;;;;;;15.13;13.63;;;22.40;99.90;;;;;;5052585;28;20816;-64
2022/06/04 02:10:01;;;;;;;15.37;13.77;;;22.10;99.90;;;;;;5052176;28;20480;-62
2022/06/04 02:12:33;;;;;;;15.83;12.37;;;22.20;99.90;;;;;;5051353;28;20526;-64
2022/06/04 02:15:00;;;;;;;14.73;13.23;;;22.20;99.90;;;;;;5052113;28;20918;-63
2022/06/04 02:17:29;;;;;;;15.30;13.00;;;22.10;99.90;;;;;;5052304;28;20454;-64
2022/06/04 02:19:56;;;;;;;16.23;14.50;;;21.90;99.90;;;;;;5052340;28;20453;-64
2022/06/04 02:22:23;;;;;;;14.20;12.80;;;21.80;99.90;;;;;;5052190;28;20535;-64
2022/06/04 02:24:50;;;;;;;15.10;13.70;;;21.80;99.90;;;;;;5052098;28;20937;-63
2022/06/04 02:27:17;;;;;;;14.77;13.37;;;21.80;99.90;;;;;;5051816;28;20453;-64
2022/06/04 02:29:45;;;;;;;17.43;13.73;;;21.90;99.90;;;;;;5051973;28;20454;-63
2022/06/04 02:32:21;;;;;;;17.20;14.60;;;21.90;99.90;;;;;;5051987;28;20503;-62
2022/06/04 02:34:58;;;;;;;15.63;14.23;;;21.80;99.90;;;;;;5052053;28;20461;-61
2022/06/04 02:37:30;;;;;;;16.10;14.37;;;21.90;99.90;;;;;;5051632;28;21041;-63
2022/06/04 02:40:06;;;;;;;15.53;14.10;;;21.90;99.90;;;;;;5051820;28;20449;-64
2022/06/04 02:42:36;;;;;;;19.80;16.50;;;22.10;99.90;;;;;;5051761;28;21021;-64
2022/06/04 02:45:10;;;;;;;20.00;15.00;;;22.10;99.90;;;;;;5051614;28;20482;-61
2022/06/04 02:47:41;;;;;;;17.53;15.37;;;22.20;99.90;;;;;;5051589;28;20450;-64
2022/06/04 02:50:15;;;;;;;16.83;14.87;;;22.20;99.90;;;;;;5051565;28;20536;-62
2022/06/04 02:52:45;;;;;;;18.30;13.73;;;22.10;99.90;;;;;;5051624;28;20902;-62
2022/06/04 02:55:16;;;;;;;15.10;13.23;;;22.10;99.90;;;;;;5051594;28;21000;-64
2022/06/04 02:57:47;;;;;;;16.37;14.50;;;22.00;99.90;;;;;;5051588;28;20879;-63
2022/06/04 03:00:20;;;;;;;17.40;15.80;;;22.00;99.90;;;;;;5051098;28;20994;-63
2022/06/04 03:02:47;;;;;;;16.13;14.43;;;22.00;99.90;;;;;;5051254;28;20472;-63
2022/06/04 03:05:16;;;;;;;15.93;14.17;;;21.90;99.90;;;;;;5051293;28;20511;-64
2022/06/04 03:07:46;;;;;;;16.00;14.43;;;22.00;99.90;;;;;;5051315;28;20779;-61
2022/06/04 03:10:15;;;;;;;16.80;15.30;;;22.00;99.90;;;;;;5051209;28;20484;-63
2022/06/04 03:12:42;;;;;;;15.73;14.07;;;22.00;99.90;;;;;;5051109;28;20615;-64
2022/06/04 03:15:11;;;;;;;16.57;14.93;;;22.00;99.90;;;;;;5050933;28;20457;-62
2022/06/04 03:17:40;;;;;;;17.97;15.07;;;22.00;99.90;;;;;;5050900;28;20965;-63
2022/06/04 03:20:09;;;;;;;16.27;14.27;;;22.00;99.90;;;;;;5051043;28;20935;-64
2022/06/04 03:22:36;;;;;;;15.93;14.23;;;22.00;99.90;;;;;;5051096;28;20913;-62
2022/06/04 03:25:04;;;;;;;19.23;14.43;;;22.00;99.90;;;;;;5049702;28;20450;-61
2022/06/04 03:27:31;;;;;;;16.47;14.63;;;22.10;99.90;;;;;;5050849;28;20503;-62
2022/06/04 03:29:58;;;;;;;16.30;14.57;;;22.10;99.90;;;;;;5050819;28;20790;-61
2022/06/04 03:32:25;;;;;;;14.93;13.53;;;22.20;99.90;;;;;;5050831;28;20469;-65
2022/06/04 03:34:54;;;;;;;15.47;13.97;;;22.20;99.90;;;;;;5050941;28;20446;-62
2022/06/04 03:37:21;;;;;;;16.83;15.33;;;22.20;99.90;;;;;;5050640;28;20449;-63
2022/06/04 03:39:48;;;;;;;16.07;14.47;;;22.20;99.90;;;;;;5050622;28;21008;-65
2022/06/04 03:42:15;;;;;;;16.00;14.47;;;22.20;99.90;;;;;;5050406;28;20466;-64
2022/06/04 03:44:46;;;;;;;16.10;14.50;;;22.20;99.90;;;;;;5050440;28;20524;-64
2022/06/04 03:47:13;;;;;;;14.50;13.20;;;22.20;99.90;;;;;;5050491;28;20458;-64
2022/06/04 03:49:40;;;;;;;16.00;14.40;;;22.20;99.90;;;;;;5050570;28;20454;-64
2022/06/04 03:52:10;;;;;;;16.73;15.00;;;22.30;99.90;;;;;;5050355;28;20481;-64
2022/06/04 03:54:55;;;;;;;17.80;15.90;;;22.40;99.90;;;;;;5050208;28;20565;-62
2022/06/04 03:57:42;;;;;;;17.93;16.20;;;22.40;99.90;;;;;;5050153;28;20560;-65
2022/06/04 04:00:21;;;;;;;17.77;14.90;;;22.50;99.90;;;;;;5050255;28;20454;-61
2022/06/04 04:02:51;;;;;;;15.47;14.00;;;22.60;99.90;;;;;;5050150;28;20870;-61
2022/06/04 04:05:21;;;;;;;17.03;15.33;;;22.60;99.90;;;;;;5049843;28;20809;-63
2022/06/04 04:07:50;;;;;;;16.13;14.40;;;22.60;99.90;;;;;;5050290;28;20446;-63
2022/06/04 04:10:18;;;;;;;15.30;13.70;;;22.70;99.90;;;;;;5050014;28;20812;-62
2022/06/04 04:12:45;;;;;;;18.80;15.93;;;22.80;99.90;;;;;;5050292;28;20449;-63
2022/06/04 04:15:14;;;;;;;15.47;13.90;;;22.80;99.90;;;;;;5049591;28;20450;-63
2022/06/04 04:17:41;;;;;;;16.63;14.93;;;22.90;99.90;;;;;;5049913;28;20458;-64
2022/06/04 04:20:12;;;;;;;16.27;14.60;;;22.90;99.90;;;;;;5049881;28;20457;-64
2022/06/04 04:22:39;;;;;;;17.13;15.43;;;23.00;99.90;;;;;;5049941;28;20450;-64
2022/06/04 04:25:11;;;;;;;18.47;15.53;;;23.00;99.90;;;;;;5049877;28;20868;-66
2022/06/04 04:27:38;;;;;;;19.80;15.30;;;23.20;99.90;;;;;;5049957;28;20808;-63
2022/06/04 04:30:07;;;;;;;16.33;14.73;;;23.30;99.90;;;;;;5049689;28;20475;-62
2022/06/04 04:32:34;;;;;;;18.93;15.63;;;23.40;99.90;;;;;;5049778;28;20567;-64
2022/06/04 04:35:02;;;;;;;19.50;14.97;;;23.40;99.90;;;;;;5049469;28;20450;-65
2022/06/04 04:37:29;;;;;;;16.93;15.00;;;23.60;99.90;;;;;;5049668;28;20470;-62
2022/06/04 04:39:56;;;;;;;18.30;16.50;;;23.70;99.90;;;;;;5049649;28;20515;-64
2022/06/04 04:42:26;;;;;;;17.83;16.10;;;23.80;99.90;;;;;;5049578;28;20449;-65
2022/06/04 04:44:53;;;;;;;18.03;16.07;;;24.00;99.90;;;;;;5049345;28;20550;-63
2022/06/04 04:47:21;;;;;;;18.47;16.60;;;24.00;99.90;;;;;;5049442;28;20474;-62
2022/06/04 04:49:48;;;;;;;16.40;14.70;;;23.90;99.90;;;;;;5049707;28;20449;-62
2022/06/04 04:52:15;;;;;;;19.40;17.10;;;24.00;99.90;;;;;;5049535;28;20494;-62
2022/06/04 04:54:42;;;;;;;17.27;15.70;;;24.00;99.90;;;;;;5049712;28;20914;-65
2022/06/04 04:57:09;;;;;;;18.23;16.27;;;23.90;99.90;;;;;;5049182;28;20474;-63
2022/06/04 04:59:38;;;;;;;20.17;17.70;;;23.90;99.90;;;;;;5049444;28;20457;-63
2022/06/04 05:02:05;;;;;;;19.30;17.40;;;24.10;99.90;;;;;;5049410;28;20460;-65
2022/06/04 05:04:32;;;;;;;19.50;17.50;;;24.10;99.90;;;;;;5049464;28;20540;-64
2022/06/04 05:06:59;;;;;;;20.27;18.17;;;24.20;99.90;;;;;;5049224;28;20883;-66
2022/06/04 05:09:27;;;;;;;17.80;16.20;;;24.30;99.90;;;;;;5049258;28;20465;-64
2022/06/04 05:11:54;;;;;;;18.47;16.57;;;24.40;99.90;;;;;;5048834;28;21029;-66
2022/06/04 05:14:21;;;;;;;18.73;16.73;;;24.50;99.90;;;;;;5049266;28;20450;-69
2022/06/04 05:16:49;;;;;;;18.43;16.63;;;24.60;99.90;;;;;;5049303;28;20466;-63
2022/06/04 05:19:16;;;;;;;17.60;16.00;;;24.70;99.90;;;;;;5049556;28;20516;-65
2022/06/04 05:21:46;;;;;;;17.63;15.73;;;24.80;99.90;;;;;;5049386;28;20457;-66
2022/06/04 05:24:22;;;;;;;18.87;16.90;;;25.00;99.90;;;;;;5049143;28;20532;-63
2022/06/04 05:26:49;;;;;;;17.70;16.00;;;25.20;99.90;;;;;;5049221;28;21032;-66
2022/06/04 05:29:17;;;;;;;16.03;14.53;;;25.30;99.90;;;;;;5049134;28;20992;-66
2022/06/04 05:31:45;;;;;;;17.93;16.17;;;25.30;99.90;;;;;;5049057;28;20486;-68
2022/06/04 05:34:15;;;;;;;19.83;17.73;;;25.00;99.90;;;;;;5049324;28;20453;-69
2022/06/04 05:36:43;;;;;;;18.20;16.30;;;25.00;99.90;;;;;;5048961;28;20481;-66
2022/06/04 05:39:11;;;;;;;20.13;16.80;;;25.10;99.90;;;;;;5048664;28;20998;-68
2022/06/04 05:41:38;;;;;;;19.57;17.47;;;25.20;99.90;;;;;;5049153;28;20446;-68
2022/06/04 05:44:06;;;;;;;19.13;17.37;;;25.40;99.90;;;;;;5048688;28;20654;-71
2022/06/04 05:46:33;;;;;;;18.60;16.60;;;25.40;99.90;;;;;;5048884;28;20473;-67
2022/06/04 05:49:01;;;;;;;17.70;15.80;;;25.50;99.90;;;;;;5052258;28;20460;-63
2022/06/04 05:51:31;;;;;;;18.70;16.77;;;25.60;99.90;;;;;;5052296;28;21008;-63
2022/06/04 05:53:59;;;;;;;18.77;16.87;;;25.50;99.90;;;;;;5052650;28;20446;-63
2022/06/04 05:56:29;;;;;;;18.57;15.37;;;25.50;99.90;;;;;;5052088;28;20474;-63
2022/06/04 05:58:58;;;;;;;16.70;15.10;;;25.60;99.90;;;;;;5052614;28;20454;-62
2022/06/04 06:01:27;;;;;;;17.47;15.67;;;25.80;99.90;;;;;;5051978;28;20499;-63
2022/06/04 06:03:54;;;;;;;18.87;16.87;;;26.00;99.90;;;;;;5052708;28;20460;-64
2022/06/04 06:06:24;;;;;;;17.83;15.83;;;26.10;99.90;;;;;;5052314;28;20982;-65
2022/06/04 06:08:53;;;;;;;17.93;16.20;;;26.20;99.90;;;;;;5052081;28;20457;-65
2022/06/04 06:11:21;;;;;;;17.47;15.67;;;26.40;99.90;;;;;;5052273;28;20481;-66
2022/06/04 06:13:49;;;;;;;15.23;13.83;;;26.50;99.90;;;;;;5052443;28;20462;-67
2022/06/04 06:16:20;;;;;;;18.27;16.43;;;26.50;99.90;;;;;;5052078;28;20581;-67
2022/06/04 06:18:47;;;;;;;17.37;15.63;;;26.50;99.90;;;;;;5052165;28;20450;-65
2022/06/04 06:21:17;;;;;;;20.13;16.83;;;26.50;99.90;;;;;;5052173;28;20499;-66
2022/06/04 06:23:45;;;;;;;18.57;14.70;;;26.60;99.90;;;;;;5052201;28;20462;-66
2022/06/04 06:26:16;;;;;;;18.87;15.80;;;26.70;99.90;;;;;;5052081;28;20834;-66
2022/06/04 06:28:44;;;;;;;16.53;14.93;;;26.70;99.90;;;;;;5051877;28;20457;-66
2022/06/04 06:31:14;;;;;;;15.40;13.83;;;26.70;99.90;;;;;;5051690;28;20600;-64
2022/06/04 06:33:42;;;;;;;18.90;14.83;;;26.80;99.90;;;;;;5051848;28;20450;-65
2022/06/04 06:36:11;;;;;;;18.67;14.73;;;26.70;99.90;;;;;;5051978;28;20470;-64
2022/06/04 06:38:39;;;;;;;15.17;13.00;;;26.70;99.90;;;;;;5051478;28;20450;-67
2022/06/04 06:41:08;;;;;;;15.00;12.43;;;26.60;99.90;;;;;;5051525;28;20472;-65
2022/06/04 06:43:37;;;;;;;16.57;14.33;;;26.50;99.90;;;;;;5051421;28;20498;-64
2022/06/04 06:46:07;;;;;;;13.70;12.20;;;26.60;99.90;;;;;;5051629;28;20477;-65
2022/06/04 06:48:35;;;;;;;14.90;13.40;;;26.70;99.90;;;;;;5051895;28;20933;-65
2022/06/04 06:51:06;;;;;;;13.60;12.30;;;26.80;99.90;;;;;;5051657;28;20457;-65
2022/06/04 06:53:33;;;;;;;13.73;12.40;;;27.00;99.90;;;;;;5051499;28;20461;-67
2022/06/04 06:56:09;;;;;;;13.60;12.07;;;27.10;99.90;;;;;;5051284;28;20516;-65
2022/06/04 06:58:38;;;;;;;13.30;11.57;;;27.20;99.90;;;;;;5051310;28;20547;-66
2022/06/04 07:01:05;;;;;;;13.57;12.10;;;27.50;99.90;;;;;;5051572;28;20450;-65
2022/06/04 07:03:32;;;;;;;12.90;11.60;;;27.60;99.90;;;;;;5051569;28;20956;-66
2022/06/04 07:05:59;;;;;;;14.60;11.70;;;27.80;99.90;;;;;;5050947;28;21043;-67
2022/06/04 07:08:27;;;;;;;14.90;12.07;;;27.80;99.90;;;;;;5051671;28;20457;-67
2022/06/04 07:10:55;;;;;;;17.40;11.90;;;27.90;99.90;;;;;;5052096;28;20881;-64
2022/06/04 07:13:22;;;;;;;14.90;11.23;;;28.00;99.90;;;;;;5052887;28;20568;-66
2022/06/04 07:15:50;;;;;;;15.37;10.83;;;28.00;99.90;;;;;;5053500;28;21063;-63
2022/06/04 07:18:17;;;;;;;13.43;10.20;;;28.20;99.90;;;;;;5052715;28;20453;-65
2022/06/04 07:20:44;;;;;;;14.50;11.10;;;28.50;99.90;;;;;;5050663;28;20450;-67
2022/06/04 07:23:12;;;;;;;15.30;10.60;;;28.70;99.90;;;;;;5050960;28;20453;-66
2022/06/04 07:25:41;;;;;;;11.40;9.77;;;28.80;99.90;;;;;;5050761;28;20567;-67
2022/06/04 07:28:09;;;;;;;12.30;9.83;;;28.80;99.90;;;;;;5050883;28;20508;-67
2022/06/04 07:30:37;;;;;;;17.63;9.50;;;29.00;99.90;;;;;;5050883;28;20837;-68
2022/06/04 07:33:06;;;;;;;11.83;9.50;;;29.10;99.90;;;;;;5050862;28;21247;-65
2022/06/04 07:35:33;;;;;;;11.77;9.20;;;29.30;99.90;;;;;;5050563;28;20536;-66
2022/06/04 07:38:00;;;;;;;12.10;8.30;;;29.50;99.90;;;;;;5050680;28;20458;-63
2022/06/04 07:40:27;;;;;;;11.73;9.73;;;29.70;99.90;;;;;;5050655;28;20492;-64
2022/06/04 07:42:55;;;;;;;15.87;11.00;;;29.90;99.90;;;;;;5050660;28;20474;-64
2022/06/04 07:45:22;;;;;;;15.60;10.27;;;30.00;99.90;;;;;;5050249;28;20920;-64
2022/06/04 07:47:49;;;;;;;15.20;9.70;;;30.10;99.90;;;;;;5050680;28;20519;-64
2022/06/04 07:50:18;;;;;;;10.90;9.50;;;30.30;99.90;;;;;;5050308;28;20507;-64
2022/06/04 07:52:45;;;;;;;14.13;9.23;;;30.60;99.90;;;;;;5050180;28;20509;-65
2022/06/04 07:55:12;;;;;;;14.93;9.53;;;30.80;99.90;;;;;;5050218;28;20465;-65
2022/06/04 07:57:40;;;;;;;11.97;9.83;;;31.00;99.90;;;;;;5050345;28;20504;-66
2022/06/04 08:00:09;;;;;;;13.83;8.90;;;31.10;99.90;;;;;;5049790;28;20469;-65
2022/06/04 08:02:36;;;;;;;14.13;8.77;;;31.10;99.90;;;;;;5050125;28;20519;-62
2022/06/04 08:05:04;;;;;;;13.63;9.73;;;31.10;99.90;;;;;;5050099;28;20507;-68
2022/06/04 08:07:32;;;;;;;15.30;9.00;;;31.20;99.90;;;;;;5050086;28;20855;-66
2022/06/04 08:09:59;;;;;;;8.87;7.97;;;31.20;99.90;;;;;;5049571;28;20446;-66
2022/06/04 08:12:30;;;;;;;13.17;8.33;;;31.20;99.90;;;;;;5050150;28;20547;-64
2022/06/04 08:14:57;;;;;;;15.27;8.57;;;31.40;99.90;;;;;;5050160;28;20541;-65
2022/06/04 08:17:25;;;;;;;16.63;9.20;;;31.40;99.90;;;;;;5049731;28;20493;-68
2022/06/04 08:19:52;;;;;;;14.23;8.70;;;31.40;99.90;;;;;;5049954;28;20481;-66
2022/06/04 08:22:20;;;;;;;12.60;8.40;;;31.40;99.90;;;;;;5050015;28;20458;-68
2022/06/04 08:24:49;;;;;;;12.90;8.27;;;31.30;99.90;;;;;;5049768;28;20947;-64
2022/06/04 08:27:17;;;;;;;9.87;7.90;;;31.50;99.90;;;;;;5049919;28;20930;-63
2022/06/04 08:29:44;;;;;;;9.47;8.50;;;31.60;99.90;;;;;;5049552;28;20889;-65
2022/06/04 08:32:13;;;;;;;12.20;7.80;;;31.70;99.90;;;;;;5049471;28;20485;-66
2022/06/04 08:34:40;;;;;;;11.90;8.03;;;31.50;99.90;;;;;;5049665;28;20458;-65
2022/06/04 08:37:07;;;;;;;9.23;7.30;;;31.30;99.90;;;;;;5049533;28;20966;-65
2022/06/04 08:39:34;;;;;;;10.43;8.47;;;31.40;99.90;;;;;;5049518;28;20863;-66
2022/06/04 08:42:17;;;;;;;9.63;8.10;;;31.30;99.90;;;;;;5049421;28;20496;-65
2022/06/04 08:44:47;;;;;;;11.00;7.50;;;31.00;99.90;;;;;;5049291;28;20493;-66
2022/06/04 08:47:17;;;;;;;10.57;7.57;;;31.00;99.90;;;;;;5049202;28;20509;-65
2022/06/04 08:49:48;;;;;;;13.07;7.43;;;30.90;99.90;;;;;;5049584;28;20539;-67
2022/06/04 08:52:18;;;;;;;9.83;7.00;;;30.80;99.90;;;;;;5049478;28;21005;-66
2022/06/04 08:57:42;;;;;;;8.87;5.90;;;30.80;99.90;;;;;;5049696;28;20913;-66
2022/06/04 09:00:15;;;;;;;8.47;5.50;;;30.90;99.60;;;;;;5049582;28;20453;-67
2022/06/04 09:03:09;;;;;;;11.33;6.53;;;30.90;99.20;;;;;;5049664;28;20970;-66
2022/06/04 09:05:56;;;;;;;10.63;6.60;;;30.90;99.90;;;;;;5047742;28;20885;-66
2022/06/04 09:08:32;;;;;;;7.50;6.13;;;30.90;99.40;;;;;;5049311;28;20469;-66
2022/06/04 09:11:01;;;;;;;7.90;6.53;;;30.90;99.00;;;;;;5049362;28;20540;-68
2022/06/04 09:13:34;;;;;;;6.60;5.87;;;30.90;98.90;;;;;;5049113;28;21147;-66
2022/06/04 09:16:08;;;;;;;9.53;6.20;;;30.90;98.10;;;;;;5049160;28;20507;-68
2022/06/04 09:18:36;;;;;;;7.70;6.00;;;31.00;97.60;;;;;;5049474;28;20876;-67
2022/06/04 09:21:06;;;;;;;8.97;6.40;;;31.10;98.20;;;;;;5049470;28;20521;-67
2022/06/04 09:23:48;;;;;;;8.10;6.40;;;31.10;98.40;;;;;;5053384;28;20572;-67
2022/06/04 09:26:27;;;;;;;11.57;6.63;;;31.20;97.70;;;;;;5053040;28;20512;-67
2022/06/04 09:29:06;;;;;;;7.93;7.03;;;31.30;98.20;;;;;;5052732;28;20560;-66
2022/06/04 09:31:46;;;;;;;9.40;6.20;;;31.40;99.30;;;;;;5053147;28;20450;-67
2022/06/04 09:34:19;;;;;;;7.17;5.20;;;31.50;98.50;;;;;;5053139;28;20503;-66
2022/06/04 09:36:47;;;;;;;6.97;5.57;;;31.60;98.30;;;;;;5052918;28;20449;-65
2022/06/04 09:39:21;;;;;;;7.43;6.07;;;31.70;97.10;;;;;;5052642;28;20466;-65
2022/06/04 09:41:52;;;;;;;6.67;5.10;;;31.70;96.00;;;;;;5052968;28;20515;-66
2022/06/04 09:44:21;;;;;;;7.27;6.57;;;31.70;95.70;;;;;;5052190;28;20485;-66
2022/06/04 09:46:52;;;;;;;10.37;5.80;;;31.90;97.00;;;;;;5052714;28;20441;-66
2022/06/04 09:49:32;;;;;;;9.50;7.53;;;32.10;96.80;;;;;;5052562;28;20920;-67
2022/06/04 09:52:00;;;;;;;8.30;5.73;;;32.20;96.10;;;;;;5052888;28;20916;-67
2022/06/04 09:54:30;;;;;;;8.20;6.80;;;32.40;95.40;;;;;;5052772;28;20872;-67
2022/06/04 09:57:02;;;;;;;8.63;5.70;;;32.40;92.80;;;;;;5052121;28;20457;-67
2022/06/04 09:59:33;;;;;;;6.80;5.53;;;32.20;91.40;;;;;;5052632;28;20477;-65
2022/06/04 10:02:02;;;;;;;8.20;5.60;;;32.30;91.20;;;;;;5052415;28;20450;-65
2022/06/04 10:04:38;;;;;;;9.37;6.00;;;32.10;91.50;;;;;;5052469;28;20458;-67
2022/06/04 10:07:08;;;;;;;6.67;5.97;;;32.10;90.90;;;;;;5052478;28;20503;-66
2022/06/04 10:09:56;;;;;;;7.50;5.90;;;32.00;91.60;;;;;;5052041;28;21109;-66
2022/06/04 10:15:31;;;;;;;8.20;5.33;;;31.90;92.80;;;;;;5026099;28;20988;-64
2022/06/04 10:18:05;;;;;;;7.60;5.27;;;31.90;93.10;;;;;;5051847;28;20575;-67
2022/06/04 10:20:32;;;;;;;6.90;5.70;;;32.00;91.60;;;;;;5052123;28;20442;-67
2022/06/04 10:22:59;;;;;;;9.57;6.10;;;31.80;90.80;;;;;;5051986;28;20930;-67
2022/06/04 10:25:37;;;;;;;8.03;5.43;;;31.90;91.30;;;;;;5052047;28;20446;-65
2022/06/04 10:28:18;;;;;;;6.20;5.43;;;32.00;91.90;;;;;;5051905;28;20978;-66
2022/06/04 10:30:57;;;;;;;10.53;5.90;;;32.00;90.50;;;;;;5051689;28;20461;-68
2022/06/04 10:33:36;;;;;;;6.87;6.07;;;32.00;91.00;;;;;;5051184;28;20895;-66
2022/06/04 10:36:18;;;;;;;8.83;6.43;;;32.00;90.50;;;;;;5051609;28;20515;-66
2022/06/04 10:38:56;;;;;;;7.00;5.90;;;32.20;89.70;;;;;;5052078;28;20608;-66
2022/06/04 10:41:35;;;;;;;7.30;6.33;;;32.30;88.40;;;;;;5052012;28;20861;-67
2022/06/04 10:44:44;;;;;;;11.30;5.80;;;32.40;86.50;;;;;;5051316;28;20550;-66
2022/06/04 10:47:31;;;;;;;6.50;5.73;;;32.40;85.60;;;;;;5051638;28;20506;-65
2022/06/04 10:50:30;;;;;;;7.10;5.60;;;32.60;86.70;;;;;;5051162;28;20872;-66
2022/06/04 10:53:07;;;;;;;10.20;6.13;;;32.90;88.00;;;;;;5043193;28;21002;-63
2022/06/04 10:55:45;;;;;;;13.47;6.33;;;32.90;83.70;;;;;;5051424;28;20469;-64
2022/06/04 10:58:29;;;;;;;9.30;6.10;;;32.70;83.50;;;;;;5051437;28;20486;-66
2022/06/04 11:01:02;;;;;;;6.73;5.60;;;32.70;83.60;;;;;;5051544;28;20465;-68
2022/06/04 11:03:39;;;;;;;8.33;6.37;;;32.90;84.10;;;;;;5051496;28;20503;-64
2022/06/04 11:06:12;;;;;;;8.20;5.97;;;33.20;84.60;;;;;;5051050;28;20530;-66
2022/06/04 11:08:46;;;;;;;7.57;6.67;;;33.50;84.80;;;;;;5051201;28;20523;-65
2022/06/04 11:11:20;;;;;;;10.27;7.20;;;33.80;83.90;;;;;;5051350;28;20458;-65
2022/06/04 11:13:53;;;;;;;9.33;7.57;;;34.10;85.40;;;;;;5051330;28;20485;-66
2022/06/04 11:16:24;;;;;;;8.37;6.80;;;34.30;84.00;;;;;;5051311;28;20470;-64
2022/06/04 11:18:57;;;;;;;10.90;6.90;;;34.60;84.20;;;;;;5050918;28;20478;-71
2022/06/04 11:21:28;;;;;;;12.53;7.13;;;34.80;81.40;;;;;;5050947;28;20497;-70
2022/06/04 11:24:00;;;;;;;10.10;6.40;;;34.90;81.70;;;;;;5050964;28;20453;-65
2022/06/04 11:26:33;;;;;;;7.97;6.43;;;35.00;81.40;;;;;;5050387;28;20450;-66
2022/06/04 11:29:02;;;;;;;7.37;6.67;;;35.10;78.60;;;;;;5050458;28;20470;-66
2022/06/04 11:31:54;;;;;;;7.57;6.70;;;35.20;78.00;;;;;;5049592;28;20484;-66
2022/06/04 11:35:03;;;;;;;7.97;6.23;;;35.50;78.30;;;;;;5050669;28;20813;-66
2022/06/04 11:37:41;;;;;;;9.30;7.50;;;35.60;77.50;;;;;;5050659;28;20480;-67
2022/06/04 11:40:21;;;;;;;11.30;7.40;;;35.70;76.60;;;;;;5050700;28;20516;-65
2022/06/04 11:42:57;;;;;;;8.70;7.80;;;36.00;73.50;;;;;;5050860;28;20551;-66
2022/06/04 11:45:50;;;;;;;9.63;8.00;;;36.10;73.50;;;;;;5049658;28;20485;-65
2022/06/04 11:48:36;;;;;;;9.40;8.20;;;36.10;72.40;;;;;;5050469;28;20466;-66
2022/06/04 11:51:25;;;;;;;9.83;8.83;;;35.70;72.00;;;;;;5050702;28;20454;-65
2022/06/04 11:53:56;;;;;;;11.10;9.67;;;35.20;72.40;;;;;;5050652;28;20812;-66
2022/06/04 11:56:32;;;;;;;17.17;9.00;;;35.10;72.70;;;;;;5050208;28;20457;-66
2022/06/04 11:59:13;;;;;;;9.77;8.77;;;35.10;72.00;;;;;;5050382;28;20951;-65
2022/06/04 12:01:42;;;;;;;10.50;8.47;;;35.20;73.40;;;;;;5050549;28;20519;-64
2022/06/04 12:04:15;;;;;;;9.90;8.50;;;35.10;73.80;;;;;;5050549;28;20477;-66
2022/06/04 12:06:49;;;;;;;11.40;8.50;;;34.80;73.70;;;;;;5050237;28;20445;-66
2022/06/04 12:09:24;;;;;;;9.97;8.93;;;34.70;73.60;;;;;;5050551;28;20523;-65
2022/06/04 12:11:57;;;;;;;9.00;8.10;;;34.50;74.50;;;;;;5050235;28;20818;-67
2022/06/04 12:14:33;;;;;;;13.13;8.97;;;34.10;74.50;;;;;;5050271;28;20490;-66
2022/06/04 12:17:19;;;;;;;10.87;8.83;;;34.10;76.00;;;;;;5050260;28;20462;-68
2022/06/04 12:25:39;;;;;;;12.13;8.70;;;33.80;79.70;;;;;;5049910;28;20429;-68
2022/06/04 12:28:23;;;;;;;9.87;8.33;;;33.60;80.40;;;;;;5049824;28;20829;-66
2022/06/04 12:30:50;;;;;;;11.50;9.00;;;33.60;81.20;;;;;;5049855;28;20453;-67
2022/06/04 12:33:28;;;;;;;10.20;9.03;;;33.70;80.10;;;;;;5049832;28;20543;-67
2022/06/04 12:35:57;;;;;;;10.83;9.60;;;33.60;78.50;;;;;;5049537;28;20457;-67
2022/06/04 12:38:27;;;;;;;10.30;8.77;;;33.50;78.80;;;;;;5049438;28;20470;-72
2022/06/04 12:41:09;;;;;;;10.98;9.30;;;33.40;80.90;;;;;;5049176;28;20436;-70
2022/06/04 12:43:38;;;;;;;11.13;9.47;;;33.60;81.50;;;;;;5048939;28;20289;-64
2022/06/04 12:46:10;;;;;;;12.47;9.63;;;33.70;80.80;;;;;;5049278;28;20453;-64
2022/06/04 12:48:57;;;;;;;12.47;8.47;;;33.70;80.80;;;;;;5049578;28;20487;-64
2022/06/04 12:51:50;;;;;;;9.20;8.30;;;33.70;81.10;;;;;;5049775;28;20453;-62
2022/06/04 12:54:38;;;;;;;9.37;8.47;;;33.90;80.60;;;;;;5049751;28;20616;-62
2022/06/04 12:57:16;;;;;;;9.87;8.87;;;34.10;79.40;;;;;;5049306;28;20892;-61
2022/06/04 12:59:45;;;;;;;8.77;7.90;;;34.10;78.90;;;;;;5049360;28;20465;-61
2022/06/04 13:02:28;;;;;;;10.63;8.50;;;34.30;79.50;;;;;;5049563;28;20454;-61
2022/06/04 13:05:13;;;;;;;10.37;8.47;;;34.70;78.50;;;;;;5049118;28;20551;-61
2022/06/04 13:07:47;;;;;;;9.03;8.23;;;35.10;77.90;;;;;;5049309;28;20450;-62
2022/06/04 13:10:25;;;;;;;11.37;8.40;;;35.50;78.20;;;;;;5049568;28;20797;-62
2022/06/04 13:13:00;;;;;;;13.57;8.50;;;36.10;76.70;;;;;;5049467;28;20454;-61
2022/06/04 13:15:37;;;;;;;9.37;8.37;;;36.30;72.80;;;;;;5049385;28;20524;-60
2022/06/04 13:18:05;;;;;;;10.97;9.30;;;36.10;72.00;;;;;;5049211;28;20481;-60